Time;durP1;ratioP1;P1;durP2;ratioP2;P2;SDS_P1;SDS_P2;PMS_P1;PMS_P2;Temp;Humidity;BMP_temperature;BMP_pressure;BME280_temperature;BME280_humidity;BME280_pressure;Samples;Min_cycle;Max_cycle;Signal;HPM_P1;HPM_P2
2022/07/19 00:01:36;;;;;;;5.55;2.25;;;15.80;91.30;;;;;;5030619;28;20975;-58
2022/07/19 00:04:02;;;;;;;4.10;1.95;;;15.80;92.10;;;;;;5029095;28;20049;-59
2022/07/19 00:06:28;;;;;;;3.97;1.90;;;15.70;92.00;;;;;;5030335;28;20056;-60
2022/07/19 00:08:53;;;;;;;7.15;1.92;;;15.60;92.00;;;;;;5028838;28;20060;-59
2022/07/19 00:11:19;;;;;;;4.30;2.30;;;15.60;92.10;;;;;;5028720;28;20091;-59
2022/07/19 00:13:45;;;;;;;4.50;2.20;;;15.60;92.00;;;;;;5028413;28;20034;-59
2022/07/19 00:16:11;;;;;;;6.25;2.13;;;15.50;92.10;;;;;;5026393;28;20459;-59
2022/07/19 00:18:36;;;;;;;5.43;2.00;;;15.50;92.30;;;;;;5028235;28;20032;-59
2022/07/19 00:21:02;;;;;;;5.05;2.72;;;15.40;93.70;;;;;;5027624;28;20030;-60
2022/07/19 00:23:28;;;;;;;4.22;2.10;;;15.40;93.40;;;;;;5030115;28;20026;-59
2022/07/19 00:25:53;;;;;;;4.25;2.25;;;15.40;93.60;;;;;;5029285;28;20404;-59
2022/07/19 00:28:19;;;;;;;4.70;1.98;;;15.30;93.70;;;;;;5030215;28;20049;-58
2022/07/19 00:30:45;;;;;;;4.22;2.28;;;15.30;93.60;;;;;;5029427;28;20099;-59
2022/07/19 00:33:10;;;;;;;4.03;2.25;;;15.30;94.00;;;;;;5030115;28;20014;-59
2022/07/19 00:35:37;;;;;;;4.57;2.45;;;15.30;94.00;;;;;;5029402;28;20547;-59
2022/07/19 00:38:05;;;;;;;3.10;2.15;;;15.30;94.10;;;;;;5028967;28;20075;-58
2022/07/19 00:40:31;;;;;;;4.82;2.38;;;15.30;94.30;;;;;;5029316;28;20030;-59
2022/07/19 00:42:57;;;;;;;3.80;2.10;;;15.30;94.20;;;;;;5026342;28;20037;-59
2022/07/19 00:45:22;;;;;;;3.95;2.00;;;15.30;94.30;;;;;;5030487;28;20116;-58
2022/07/19 00:47:49;;;;;;;5.50;2.42;;;15.30;94.80;;;;;;5029207;28;20582;-59
2022/07/19 00:50:14;;;;;;;14.80;2.28;;;15.30;94.90;;;;;;5028840;28;20524;-59
2022/07/19 00:52:41;;;;;;;5.93;2.53;;;15.20;95.40;;;;;;5029714;28;20025;-59
2022/07/19 00:55:09;;;;;;;6.55;2.38;;;15.10;95.80;;;;;;5027341;28;20096;-58
2022/07/19 00:57:37;;;;;;;3.72;2.47;;;15.00;96.00;;;;;;5030075;28;20075;-59
2022/07/19 01:00:05;;;;;;;7.70;3.22;;;14.80;96.40;;;;;;5029106;28;20481;-58
2022/07/19 01:02:32;;;;;;;4.07;2.17;;;14.70;97.00;;;;;;5029216;28;20034;-58
2022/07/19 01:04:59;;;;;;;13.30;2.60;;;14.60;97.30;;;;;;5028521;28;20029;-59
2022/07/19 01:07:24;;;;;;;4.35;2.30;;;14.50;98.30;;;;;;5028245;28;20025;-59
2022/07/19 01:09:51;;;;;;;5.80;2.40;;;14.40;99.10;;;;;;5029479;28;20045;-58
2022/07/19 01:12:18;;;;;;;4.70;1.83;;;14.30;99.20;;;;;;5028490;28;20014;-59
2022/07/19 01:14:43;;;;;;;4.82;2.20;;;14.30;99.20;;;;;;5027535;28;20029;-58
2022/07/19 01:17:09;;;;;;;6.10;2.33;;;14.20;99.10;;;;;;5028157;28;20033;-58
2022/07/19 01:19:34;;;;;;;4.75;2.17;;;14.20;99.80;;;;;;5028839;28;20034;-59
2022/07/19 01:22:00;;;;;;;6.63;2.65;;;14.10;99.90;;;;;;5029089;28;20053;-59
2022/07/19 01:24:26;;;;;;;2.95;2.15;;;14.10;99.90;;;;;;5028629;28;20120;-59
2022/07/19 01:26:52;;;;;;;3.75;2.25;;;14.10;99.90;;;;;;5028448;28;20978;-57
2022/07/19 01:29:18;;;;;;;6.80;2.75;;;14.00;99.90;;;;;;5027663;28;20026;-58
2022/07/19 01:31:43;;;;;;;4.80;2.85;;;14.00;99.90;;;;;;5028129;28;20046;-57
2022/07/19 01:34:09;;;;;;;6.85;2.78;;;13.90;99.90;;;;;;5027421;28;20033;-57
2022/07/19 01:36:35;;;;;;;4.60;2.35;;;13.90;99.90;;;;;;5029032;28;20036;-59
2022/07/19 01:39:01;;;;;;;3.80;2.38;;;13.80;99.90;;;;;;5028438;28;21196;-59
2022/07/19 01:41:26;;;;;;;8.63;2.65;;;13.80;99.90;;;;;;5027642;28;20049;-59
2022/07/19 01:43:52;;;;;;;4.07;2.30;;;13.80;99.90;;;;;;5027037;28;20056;-59
2022/07/19 01:46:18;;;;;;;4.20;2.08;;;13.80;99.90;;;;;;5027681;28;20119;-58
2022/07/19 01:48:43;;;;;;;5.53;2.20;;;13.80;99.90;;;;;;5027580;28;20075;-59
2022/07/19 01:51:09;;;;;;;3.33;2.75;;;13.80;99.90;;;;;;5028636;28;20030;-58
2022/07/19 01:53:35;;;;;;;6.13;2.75;;;13.90;99.90;;;;;;5029273;28;20241;-58
2022/07/19 01:56:04;;;;;;;8.00;2.92;;;14.00;99.90;;;;;;5027943;28;20493;-57
2022/07/19 01:58:30;;;;;;;3.75;2.42;;;14.10;99.90;;;;;;5026354;28;20497;-58
2022/07/19 02:00:56;;;;;;;7.65;2.60;;;14.20;99.90;;;;;;5028327;28;20033;-58
2022/07/19 02:03:21;;;;;;;3.60;2.38;;;14.20;99.90;;;;;;5028319;28;20026;-58
2022/07/19 02:05:47;;;;;;;4.18;2.72;;;14.20;99.90;;;;;;5028946;28;20034;-57
2022/07/19 02:08:13;;;;;;;3.42;2.47;;;14.10;99.90;;;;;;5027608;28;20044;-57
2022/07/19 02:10:38;;;;;;;3.28;2.30;;;14.10;99.90;;;;;;5028662;28;20028;-58
2022/07/19 02:13:04;;;;;;;3.97;3.08;;;14.10;99.90;;;;;;5028511;28;20026;-57
2022/07/19 02:15:30;;;;;;;3.47;2.45;;;14.00;99.90;;;;;;5027441;28;20079;-59
2022/07/19 02:17:56;;;;;;;4.03;2.53;;;13.90;99.90;;;;;;5028453;28;20056;-58
2022/07/19 02:20:22;;;;;;;4.03;2.80;;;13.80;99.90;;;;;;5027532;28;20040;-59
2022/07/19 02:22:48;;;;;;;3.65;2.63;;;13.80;99.90;;;;;;5028672;28;20090;-58
2022/07/19 02:25:14;;;;;;;2.67;2.47;;;13.70;99.90;;;;;;5028192;28;20108;-59
2022/07/19 02:27:41;;;;;;;4.90;2.80;;;13.60;99.90;;;;;;5028205;28;20021;-59
2022/07/19 02:30:07;;;;;;;6.28;2.50;;;13.60;99.90;;;;;;5028760;28;20412;-58
2022/07/19 02:32:33;;;;;;;5.97;2.70;;;13.60;99.90;;;;;;5027630;28;20026;-58
2022/07/19 02:34:59;;;;;;;3.40;2.50;;;13.50;99.90;;;;;;5028700;28;20025;-58
2022/07/19 02:37:25;;;;;;;4.72;2.67;;;13.50;99.90;;;;;;5027484;28;20045;-58
2022/07/19 02:39:50;;;;;;;4.75;2.47;;;13.40;99.90;;;;;;5028355;28;20034;-57
2022/07/19 02:42:16;;;;;;;3.83;3.30;;;13.40;99.90;;;;;;5028135;28;20022;-59
2022/07/19 02:44:42;;;;;;;3.17;2.60;;;13.30;99.90;;;;;;5028264;28;20034;-59
2022/07/19 02:47:07;;;;;;;3.40;2.75;;;13.30;99.90;;;;;;5027987;28;20037;-58
2022/07/19 02:49:33;;;;;;;4.35;3.05;;;13.30;99.90;;;;;;5027571;28;20049;-57
2022/07/19 02:51:59;;;;;;;6.65;2.75;;;13.20;99.90;;;;;;5028108;28;20367;-58
2022/07/19 02:54:24;;;;;;;5.72;2.60;;;13.20;99.90;;;;;;5027944;28;20057;-58
2022/07/19 02:56:50;;;;;;;4.80;2.50;;;13.10;99.90;;;;;;5031586;28;20026;-58
2022/07/19 02:59:16;;;;;;;6.88;2.67;;;13.10;99.90;;;;;;5031761;28;20034;-58
2022/07/19 03:01:41;;;;;;;2.70;2.28;;;13.00;99.90;;;;;;5030798;28;20496;-58
2022/07/19 03:04:07;;;;;;;3.55;2.30;;;13.00;99.90;;;;;;5031179;28;20366;-58
2022/07/19 03:06:32;;;;;;;5.07;2.63;;;12.90;99.90;;;;;;5030948;28;20033;-59
2022/07/19 03:08:58;;;;;;;5.00;2.70;;;12.90;99.90;;;;;;5030929;28;20037;-58
2022/07/19 03:11:24;;;;;;;2.67;2.47;;;12.80;99.90;;;;;;5029693;28;20041;-57
2022/07/19 03:13:49;;;;;;;5.13;2.92;;;12.90;99.90;;;;;;5029492;28;20034;-58
2022/07/19 03:16:15;;;;;;;4.55;2.65;;;12.80;99.90;;;;;;5029243;28;20052;-59
2022/07/19 03:18:41;;;;;;;4.45;2.97;;;12.80;99.90;;;;;;5030718;28;20022;-58
2022/07/19 03:21:07;;;;;;;3.67;3.00;;;12.80;99.90;;;;;;5028085;28;20100;-58
2022/07/19 03:23:36;;;;;;;3.40;2.97;;;12.80;99.90;;;;;;5028319;28;20105;-57
2022/07/19 03:26:02;;;;;;;5.47;2.60;;;12.70;99.90;;;;;;5031536;28;20029;-58
2022/07/19 03:28:36;;;;;;;3.70;2.67;;;12.70;99.90;;;;;;5030322;28;20108;-57
2022/07/19 03:31:02;;;;;;;2.88;2.58;;;12.70;99.90;;;;;;5031502;28;20034;-57
2022/07/19 03:33:28;;;;;;;3.60;2.90;;;12.70;99.90;;;;;;5032046;28;20056;-58
2022/07/19 03:35:54;;;;;;;2.88;2.60;;;12.70;99.90;;;;;;5030964;28;20067;-58
2022/07/19 03:38:19;;;;;;;3.92;2.67;;;12.60;99.90;;;;;;5031489;28;20045;-58
2022/07/19 03:40:49;;;;;;;3.20;2.85;;;12.60;99.90;;;;;;5030479;28;20511;-58
2022/07/19 03:43:18;;;;;;;8.77;3.03;;;12.70;99.90;;;;;;5030358;28;20044;-57
2022/07/19 03:45:45;;;;;;;6.15;3.30;;;12.70;99.90;;;;;;5028837;28;20033;-57
2022/07/19 03:48:11;;;;;;;4.85;3.17;;;12.60;99.90;;;;;;5031701;28;20025;-58
2022/07/19 03:50:38;;;;;;;3.70;3.22;;;12.70;99.90;;;;;;5027967;28;20021;-59
2022/07/19 03:53:03;;;;;;;4.00;3.47;;;12.80;99.90;;;;;;5030545;28;20489;-57
2022/07/19 03:55:29;;;;;;;3.35;3.05;;;12.80;99.90;;;;;;5030160;28;20048;-58
2022/07/19 03:57:55;;;;;;;4.60;3.25;;;12.90;99.90;;;;;;5029235;28;20473;-57
2022/07/19 04:00:20;;;;;;;3.13;2.53;;;12.90;99.90;;;;;;5030188;28;20029;-58
2022/07/19 04:02:46;;;;;;;4.53;2.88;;;13.00;99.90;;;;;;5027706;28;20555;-58
2022/07/19 04:05:12;;;;;;;4.03;2.97;;;13.00;99.90;;;;;;5028502;28;20539;-58
2022/07/19 04:07:37;;;;;;;3.95;2.97;;;13.00;99.90;;;;;;5027933;28;20489;-58
2022/07/19 04:10:04;;;;;;;7.40;3.05;;;13.00;99.90;;;;;;5028877;28;20079;-58
2022/07/19 04:12:29;;;;;;;7.05;3.15;;;12.90;99.90;;;;;;5028810;28;20025;-57
2022/07/19 04:14:55;;;;;;;4.22;3.47;;;12.90;99.90;;;;;;5030140;28;20447;-57
2022/07/19 04:17:21;;;;;;;9.55;3.10;;;12.90;99.90;;;;;;5030357;28;20037;-58
2022/07/19 04:19:47;;;;;;;4.75;3.08;;;13.00;99.90;;;;;;5029339;28;20045;-57
2022/07/19 04:22:12;;;;;;;5.43;3.30;;;13.00;99.90;;;;;;5030100;28;20112;-58
2022/07/19 04:24:38;;;;;;;5.60;3.42;;;13.00;99.90;;;;;;5030065;28;20033;-58
2022/07/19 04:27:04;;;;;;;4.43;3.47;;;13.10;99.90;;;;;;5029571;28;20017;-57
2022/07/19 04:29:29;;;;;;;7.82;4.00;;;13.10;99.90;;;;;;5030322;28;20026;-57
2022/07/19 04:31:55;;;;;;;5.28;3.80;;;13.10;99.90;;;;;;5028857;28;20033;-58
2022/07/19 04:34:21;;;;;;;4.97;3.67;;;13.10;99.90;;;;;;5030189;28;20045;-57
2022/07/19 04:36:46;;;;;;;8.63;3.60;;;13.10;99.90;;;;;;5024554;28;20033;-58
2022/07/19 04:39:12;;;;;;;4.13;3.55;;;13.10;99.90;;;;;;5027923;28;20481;-57
2022/07/19 04:41:38;;;;;;;3.83;3.35;;;13.20;99.90;;;;;;5029298;28;20025;-58
2022/07/19 04:44:03;;;;;;;6.00;3.88;;;13.20;99.90;;;;;;5028174;28;20042;-58
2022/07/19 04:46:29;;;;;;;5.70;3.53;;;13.30;99.90;;;;;;5026678;28;20057;-57
2022/07/19 04:48:55;;;;;;;3.88;3.50;;;13.40;99.90;;;;;;5027869;28;20113;-58
2022/07/19 04:51:20;;;;;;;6.30;3.97;;;13.50;99.90;;;;;;5029291;28;20025;-57
2022/07/19 04:53:46;;;;;;;7.38;3.55;;;13.60;99.90;;;;;;5028668;28;20032;-58
2022/07/19 04:56:12;;;;;;;4.93;3.33;;;13.70;99.90;;;;;;5023891;28;20029;-59
2022/07/19 04:58:37;;;;;;;7.72;3.50;;;13.80;99.90;;;;;;5028770;28;20026;-59
2022/07/19 05:01:03;;;;;;;6.75;3.35;;;13.90;99.90;;;;;;5028920;28;20026;-59
2022/07/19 05:03:29;;;;;;;3.92;3.45;;;14.10;99.90;;;;;;5030168;28;20033;-58
2022/07/19 05:05:55;;;;;;;5.35;3.58;;;14.20;99.90;;;;;;5028226;28;20053;-58
2022/07/19 05:08:20;;;;;;;3.85;3.28;;;14.40;99.90;;;;;;5029453;28;20039;-58
2022/07/19 05:10:46;;;;;;;7.13;3.10;;;14.60;99.90;;;;;;5028745;28;20885;-59
2022/07/19 05:13:11;;;;;;;4.45;2.95;;;15.00;99.90;;;;;;5029013;28;20109;-59
2022/07/19 05:15:37;;;;;;;5.43;3.28;;;15.80;99.90;;;;;;5029012;28;20026;-59
2022/07/19 05:18:03;;;;;;;4.05;2.70;;;17.00;99.90;;;;;;5028220;28;20025;-59
2022/07/19 05:20:29;;;;;;;3.17;2.47;;;18.50;99.90;;;;;;5029283;28;20120;-58
2022/07/19 05:22:54;;;;;;;4.35;3.30;;;19.90;98.10;;;;;;5028625;28;20017;-59
2022/07/19 05:25:20;;;;;;;2.35;2.15;;;21.10;90.00;;;;;;5028830;28;20079;-60
2022/07/19 05:27:46;;;;;;;5.65;2.85;;;22.20;83.40;;;;;;5028785;28;20465;-59
2022/07/19 05:30:12;;;;;;;3.17;2.85;;;22.90;77.30;;;;;;5028528;28;20032;-59
2022/07/19 05:32:38;;;;;;;4.65;2.35;;;23.80;73.10;;;;;;5029164;28;20029;-59
2022/07/19 05:35:04;;;;;;;2.60;2.38;;;24.90;68.90;;;;;;5027623;28;20424;-60
2022/07/19 05:37:30;;;;;;;2.85;2.10;;;25.90;63.60;;;;;;5028578;28;20030;-60
2022/07/19 05:39:56;;;;;;;3.53;2.17;;;26.90;62.30;;;;;;5028570;28;20048;-59
2022/07/19 05:42:22;;;;;;;3.38;2.22;;;28.10;58.10;;;;;;5028409;28;20034;-59
2022/07/19 05:44:48;;;;;;;2.30;2.05;;;29.00;54.70;;;;;;5028664;28;20053;-59
2022/07/19 05:47:15;;;;;;;2.92;1.90;;;29.50;53.00;;;;;;5026459;28;20068;-59
2022/07/19 05:49:41;;;;;;;3.75;2.65;;;30.30;52.20;;;;;;5026755;28;20021;-60
2022/07/19 05:52:06;;;;;;;4.05;1.63;;;30.80;51.20;;;;;;5026876;28;20097;-60
2022/07/19 05:54:32;;;;;;;3.83;2.05;;;31.40;50.20;;;;;;5024697;28;20163;-59
2022/07/19 05:56:58;;;;;;;3.55;1.77;;;32.20;47.80;;;;;;5028527;28;20396;-60
2022/07/19 05:59:23;;;;;;;2.17;1.60;;;32.70;46.40;;;;;;5027810;28;20028;-60
2022/07/19 06:01:49;;;;;;;3.03;2.05;;;33.00;46.30;;;;;;5028518;28;20413;-60
2022/07/19 06:04:15;;;;;;;2.80;1.85;;;32.90;44.80;;;;;;5021977;28;20044;-60
2022/07/19 06:06:41;;;;;;;4.80;1.80;;;33.20;44.10;;;;;;5026980;28;20035;-60
2022/07/19 06:09:11;;;;;;;5.93;1.85;;;33.10;42.20;;;;;;5025958;28;20124;-60
2022/07/19 06:11:39;;;;;;;3.00;1.80;;;33.10;43.10;;;;;;5026573;28;20056;-60
2022/07/19 06:14:06;;;;;;;2.60;1.92;;;32.80;42.70;;;;;;5028257;28;20566;-60
2022/07/19 06:16:32;;;;;;;6.20;1.58;;;31.90;44.60;;;;;;5026270;28;20045;-60
2022/07/19 06:18:57;;;;;;;4.57;1.40;;;32.30;44.50;;;;;;5027864;28;20056;-60
2022/07/19 06:21:23;;;;;;;3.63;1.73;;;32.50;44.50;;;;;;5026653;28;20508;-61
2022/07/19 06:23:49;;;;;;;2.75;1.70;;;32.70;43.30;;;;;;5020427;28;20037;-60
2022/07/19 06:26:16;;;;;;;3.50;1.80;;;33.70;42.80;;;;;;5039779;28;20026;-60
2022/07/19 06:28:42;;;;;;;3.33;1.70;;;34.50;41.40;;;;;;5024230;28;20428;-60
2022/07/19 06:31:13;;;;;;;4.18;1.60;;;34.80;40.90;;;;;;5029979;28;20048;-61
2022/07/19 06:33:43;;;;;;;2.10;1.30;;;35.60;39.70;;;;;;5030054;28;20072;-60
2022/07/19 06:36:09;;;;;;;;;;;35.30;38.20;;;;;;5028961;28;20033;-61
2022/07/19 06:38:35;;;;;;;2.22;1.20;;;35.10;39.40;;;;;;5028465;28;19916;-61
2022/07/19 06:41:00;;;;;;;6.50;1.40;;;35.70;38.80;;;;;;5031459;28;20033;-61
2022/07/19 06:43:26;;;;;;;1.75;1.30;;;36.20;38.70;;;;;;5030997;28;20040;-61
2022/07/19 06:45:52;;;;;;;4.50;1.20;;;36.70;37.80;;;;;;5028722;28;20036;-61
2022/07/19 06:48:17;;;;;;;2.30;1.20;;;37.30;36.90;;;;;;5031471;28;20029;-61
2022/07/19 06:50:43;;;;;;;7.93;1.63;;;37.40;36.50;;;;;;5030315;28;20120;-61
2022/07/19 06:53:09;;;;;;;3.83;1.33;;;37.50;36.10;;;;;;5031527;28;20026;-61
2022/07/19 06:55:36;;;;;;;4.95;1.40;;;36.90;37.00;;;;;;5031676;28;20030;-61
2022/07/19 06:58:02;;;;;;;3.58;1.30;;;37.20;36.50;;;;;;5030784;28;20032;-59
2022/07/19 07:00:27;;;;;;;3.13;1.10;;;37.70;35.20;;;;;;5031786;28;20029;-59
2022/07/19 07:02:53;;;;;;;8.63;1.40;;;37.90;35.30;;;;;;5029214;28;20025;-59
2022/07/19 07:05:19;;;;;;;3.38;1.30;;;38.30;35.90;;;;;;5028695;28;20112;-59
2022/07/19 07:07:44;;;;;;;1.45;1.30;;;37.90;35.20;;;;;;5029924;28;20033;-58
2022/07/19 07:10:10;;;;;;;5.30;1.48;;;38.40;36.70;;;;;;5031011;28;20025;-58
2022/07/19 07:12:37;;;;;;;3.55;1.42;;;38.50;34.40;;;;;;5030816;28;20034;-59
2022/07/19 07:15:04;;;;;;;4.30;1.48;;;38.60;34.20;;;;;;5029792;28;20017;-59
2022/07/19 07:17:30;;;;;;;2.88;1.30;;;37.80;35.60;;;;;;5030166;28;20551;-58
2022/07/19 07:19:58;;;;;;;3.08;1.33;;;37.40;35.10;;;;;;5029783;28;20045;-59
2022/07/19 07:22:25;;;;;;;1.77;1.05;;;37.70;35.40;;;;;;5031187;28;20029;-59
2022/07/19 07:24:50;;;;;;;5.00;1.15;;;38.60;35.00;;;;;;5029034;28;20049;-59
2022/07/19 07:27:16;;;;;;;6.18;1.50;;;39.20;34.70;;;;;;5028447;28;20472;-59
2022/07/19 07:29:42;;;;;;;5.25;1.40;;;39.50;32.70;;;;;;5030257;28;20033;-59
2022/07/19 07:32:08;;;;;;;3.53;1.30;;;40.30;33.60;;;;;;5028987;28;20113;-59
2022/07/19 07:34:33;;;;;;;2.72;1.23;;;40.60;32.60;;;;;;5030846;28;20026;-59
2022/07/19 07:36:59;;;;;;;2.05;1.30;;;41.30;31.80;;;;;;5030128;28;20033;-59
2022/07/19 07:39:25;;;;;;;2.30;1.02;;;41.90;31.00;;;;;;5030947;28;20508;-59
2022/07/19 07:41:50;;;;;;;2.50;1.23;;;42.50;30.80;;;;;;5030736;28;20603;-59
2022/07/19 07:44:16;;;;;;;4.35;1.45;;;42.70;31.50;;;;;;5029495;28;20136;-59
2022/07/19 07:46:42;;;;;;;4.40;1.20;;;42.80;29.80;;;;;;5030985;28;20029;-60
2022/07/19 07:49:08;;;;;;;4.10;1.10;;;42.00;29.70;;;;;;5029786;28;20087;-60
2022/07/19 07:51:33;;;;;;;6.75;1.00;;;42.40;29.50;;;;;;5030845;28;20501;-60
2022/07/19 07:54:00;;;;;;;1.90;0.90;;;42.70;30.10;;;;;;5030976;28;20018;-60
2022/07/19 07:56:26;;;;;;;2.83;0.90;;;42.90;29.60;;;;;;5030350;28;20034;-60
2022/07/19 07:58:51;;;;;;;2.85;1.00;;;42.90;29.40;;;;;;5029763;28;20100;-59
2022/07/19 08:01:17;;;;;;;2.22;1.02;;;42.90;29.10;;;;;;5029734;28;20568;-60
2022/07/19 08:03:43;;;;;;;1.45;1.00;;;43.40;29.30;;;;;;5030300;28;20402;-59
2022/07/19 08:06:10;;;;;;;1.85;0.80;;;44.10;29.30;;;;;;5030017;28;20017;-60
2022/07/19 08:08:36;;;;;;;4.47;1.00;;;44.10;28.70;;;;;;5030581;28;20034;-63
2022/07/19 08:11:03;;;;;;;3.40;0.95;;;44.00;28.50;;;;;;5029940;28;20030;-60
2022/07/19 08:13:29;;;;;;;2.17;0.82;;;44.00;29.00;;;;;;5030094;28;20037;-61
2022/07/19 08:15:55;;;;;;;1.20;0.82;;;44.00;28.20;;;;;;5030065;28;20030;-61
2022/07/19 08:18:20;;;;;;;3.80;0.90;;;43.80;29.20;;;;;;5029682;28;20450;-60
2022/07/19 08:20:46;;;;;;;4.40;1.00;;;43.90;28.10;;;;;;5030043;28;20033;-60
2022/07/19 08:23:11;;;;;;;1.70;1.00;;;43.60;28.20;;;;;;5029541;28;20030;-60
2022/07/19 08:25:37;;;;;;;3.25;1.17;;;43.50;28.10;;;;;;5030366;28;20116;-60
2022/07/19 08:28:04;;;;;;;1.85;0.82;;;44.20;28.70;;;;;;5029957;28;20053;-60
2022/07/19 08:30:30;;;;;;;9.32;1.25;;;44.80;28.40;;;;;;5028774;28;20056;-61
2022/07/19 08:32:56;;;;;;;3.42;0.80;;;45.10;28.00;;;;;;5030510;28;20452;-60
2022/07/19 08:35:22;;;;;;;1.25;0.90;;;44.80;28.20;;;;;;5028496;28;20061;-60
2022/07/19 08:37:47;;;;;;;2.55;0.80;;;44.80;28.00;;;;;;5029429;28;20064;-60
2022/07/19 08:40:13;;;;;;;4.72;0.85;;;44.30;27.40;;;;;;5028998;28;20505;-60
2022/07/19 08:42:42;;;;;;;2.25;0.90;;;44.80;27.90;;;;;;5029008;28;20036;-60
2022/07/19 08:45:09;;;;;;;2.05;0.90;;;45.20;26.80;;;;;;5029597;28;20083;-60
2022/07/19 08:47:37;;;;;;;1.50;0.85;;;45.40;27.60;;;;;;5028578;28;20029;-60
2022/07/19 08:50:08;;;;;;;3.30;1.40;;;45.20;26.80;;;;;;5029722;28;20044;-60
2022/07/19 08:52:34;;;;;;;1.40;0.90;;;44.60;28.10;;;;;;5028632;28;20029;-60
2022/07/19 08:55:00;;;;;;;3.30;0.90;;;44.40;27.40;;;;;;5029118;28;20041;-60
2022/07/19 09:00:12;;;;;;;1.10;0.80;;;43.90;27.30;;;;;;5034108;28;20389;-60
2022/07/19 09:02:37;;;;;;;1.48;0.90;;;43.70;27.50;;;;;;5029436;28;20056;-60
2022/07/19 09:05:09;;;;;;;2.15;0.70;;;44.00;27.90;;;;;;5029128;28;20053;-60
2022/07/19 09:07:37;;;;;;;1.85;0.70;;;44.30;26.90;;;;;;5028228;28;20105;-61
2022/07/19 09:10:15;;;;;;;3.35;0.80;;;44.60;27.90;;;;;;5026333;28;20036;-61
2022/07/19 09:13:13;;;;;;;2.25;0.93;;;43.80;27.50;;;;;;5029371;28;20350;-60
2022/07/19 09:15:44;;;;;;;10.10;1.00;;;43.20;27.80;;;;;;5027525;28;20455;-60
2022/07/19 09:18:19;;;;;;;2.40;0.70;;;42.90;29.00;;;;;;5028963;28;20025;-60
2022/07/19 09:20:47;;;;;;;1.40;0.80;;;43.40;29.30;;;;;;5028529;28;20075;-60
2022/07/19 09:23:15;;;;;;;2.78;0.77;;;43.70;26.70;;;;;;5028612;28;20026;-61
2022/07/19 09:25:45;;;;;;;6.80;1.02;;;44.20;26.60;;;;;;5029047;28;20041;-60
2022/07/19 09:28:11;;;;;;;1.33;0.77;;;43.80;26.10;;;;;;5028175;28;20032;-60
2022/07/19 09:30:45;;;;;;;1.67;1.00;;;43.60;26.90;;;;;;5028849;28;20021;-61
2022/07/19 09:33:15;;;;;;;1.88;0.90;;;44.00;26.70;;;;;;5028360;28;20041;-61
2022/07/19 09:35:43;;;;;;;;;;;44.20;26.30;;;;;;5029047;28;20359;-60
2022/07/19 09:38:19;;;;;;;6.93;1.25;;;44.40;27.10;;;;;;5029139;28;19916;-61
2022/07/19 09:40:45;;;;;;;4.97;1.02;;;44.50;26.20;;;;;;5028093;28;20384;-60
2022/07/19 09:43:11;;;;;;;2.03;0.80;;;44.40;26.40;;;;;;5028232;28;20049;-60
2022/07/19 09:45:36;;;;;;;3.65;1.00;;;43.70;25.10;;;;;;5027712;28;20013;-61
2022/07/19 09:48:03;;;;;;;3.75;0.70;;;43.00;26.40;;;;;;5029250;28;20531;-61
2022/07/19 09:50:30;;;;;;;3.17;0.80;;;43.90;26.30;;;;;;5028350;28;20109;-60
2022/07/19 09:53:00;;;;;;;1.40;0.70;;;44.80;26.30;;;;;;5028533;28;20033;-61
2022/07/19 09:55:27;;;;;;;4.97;0.70;;;46.10;24.90;;;;;;5026142;28;20049;-60
2022/07/19 09:57:52;;;;;;;0.70;0.68;;;47.50;24.40;;;;;;5025328;28;20037;-61
2022/07/19 10:00:21;;;;;;;3.58;0.77;;;48.10;23.30;;;;;;5026624;28;20083;-61
2022/07/19 10:03:00;;;;;;;1.30;0.80;;;48.00;22.80;;;;;;5021241;28;20084;-60
2022/07/19 10:05:27;;;;;;;1.80;0.70;;;47.40;22.40;;;;;;5024714;28;20063;-61
2022/07/19 10:07:53;;;;;;;1.48;0.80;;;47.20;23.30;;;;;;5022628;28;20029;-61
2022/07/19 10:10:21;;;;;;;1.75;0.82;;;45.80;23.40;;;;;;5019198;28;20029;-60
2022/07/19 10:12:50;;;;;;;1.75;0.90;;;44.70;24.30;;;;;;5027110;28;20026;-60
2022/07/19 10:15:20;;;;;;;8.40;1.10;;;44.30;24.90;;;;;;5027510;28;20029;-61
2022/07/19 10:17:50;;;;;;;1.80;0.93;;;43.90;24.70;;;;;;5025004;28;20056;-60
2022/07/19 10:20:19;;;;;;;3.67;1.05;;;43.70;24.60;;;;;;5025029;28;20041;-60
2022/07/19 10:22:45;;;;;;;1.70;1.35;;;43.30;25.60;;;;;;5026204;28;20045;-60
2022/07/19 10:25:17;;;;;;;2.22;1.00;;;42.60;25.10;;;;;;5026427;28;20034;-60
2022/07/19 10:27:45;;;;;;;3.35;1.00;;;42.50;25.90;;;;;;5026858;28;21000;-60
2022/07/19 10:30:11;;;;;;;3.72;0.90;;;41.70;25.90;;;;;;5028239;28;20029;-60
2022/07/19 10:32:38;;;;;;;3.78;1.10;;;42.00;26.00;;;;;;5022571;28;20108;-60
2022/07/19 10:35:30;;;;;;;4.32;1.20;;;40.90;26.50;;;;;;5028750;28;20036;-59
2022/07/19 10:38:02;;;;;;;2.28;1.20;;;40.20;27.30;;;;;;5025537;28;20389;-60
2022/07/19 10:40:37;;;;;;;2.70;1.23;;;40.20;27.90;;;;;;5028063;28;20406;-60
2022/07/19 10:43:07;;;;;;;2.08;1.17;;;40.00;26.80;;;;;;5026259;28;20121;-60
2022/07/19 10:45:34;;;;;;;3.45;1.23;;;40.00;27.40;;;;;;5026628;28;20124;-60
2022/07/19 10:48:02;;;;;;;3.10;0.90;;;39.60;27.40;;;;;;5027165;28;20030;-60
2022/07/19 10:50:43;;;;;;;1.85;1.05;;;39.60;28.00;;;;;;5027902;28;20026;-60
2022/07/19 10:53:08;;;;;;;3.60;1.30;;;40.40;28.60;;;;;;5028471;28;20053;-60
2022/07/19 10:55:36;;;;;;;2.63;1.20;;;41.60;26.70;;;;;;5027426;28;20064;-60
2022/07/19 10:58:11;;;;;;;5.22;1.00;;;41.20;26.00;;;;;;5028013;28;20030;-60
2022/07/19 11:00:48;;;;;;;3.17;1.13;;;39.90;27.10;;;;;;5042005;28;20024;-60
2022/07/19 11:03:22;;;;;;;2.88;1.20;;;39.60;27.40;;;;;;5027903;28;20464;-60
2022/07/19 11:05:50;;;;;;;2.47;1.10;;;39.10;27.50;;;;;;5026574;28;20018;-60
2022/07/19 11:08:16;;;;;;;7.35;1.10;;;38.70;28.10;;;;;;5027431;28;20053;-60
2022/07/19 11:10:42;;;;;;;2.75;1.27;;;39.00;27.80;;;;;;5026873;28;20017;-59
2022/07/19 11:13:08;;;;;;;2.35;1.08;;;39.20;28.10;;;;;;5027859;28;20026;-60
2022/07/19 11:15:34;;;;;;;3.55;1.10;;;39.10;28.90;;;;;;5029472;28;20035;-59
2022/07/19 11:18:06;;;;;;;3.08;1.23;;;38.50;27.00;;;;;;5030632;28;20100;-60
2022/07/19 11:20:34;;;;;;;2.75;1.27;;;38.10;27.80;;;;;;5029911;28;20049;-60
2022/07/19 11:23:03;;;;;;;3.65;1.08;;;38.10;28.30;;;;;;5030895;28;20024;-59
2022/07/19 11:25:35;;;;;;;2.15;1.27;;;38.60;27.50;;;;;;5031774;28;20084;-59
2022/07/19 11:28:02;;;;;;;2.75;1.33;;;38.80;27.10;;;;;;5030157;28;20030;-59
2022/07/19 11:30:30;;;;;;;2.35;1.10;;;38.60;28.20;;;;;;5031737;28;20021;-59
2022/07/19 11:33:04;;;;;;;3.05;1.15;;;38.40;27.90;;;;;;5029647;28;20489;-59
2022/07/19 11:35:30;;;;;;;2.28;1.40;;;37.90;28.10;;;;;;5030346;28;20037;-59
2022/07/19 11:37:58;;;;;;;2.40;1.10;;;37.40;27.80;;;;;;5031072;28;20033;-59
2022/07/19 11:40:31;;;;;;;2.72;1.50;;;37.00;28.60;;;;;;5026495;28;20432;-59
2022/07/19 11:42:57;;;;;;;3.10;1.40;;;37.00;29.10;;;;;;5016680;28;20138;-59
2022/07/19 11:45:25;;;;;;;3.22;1.30;;;37.30;30.00;;;;;;5026725;28;20458;-59
2022/07/19 11:47:54;;;;;;;2.45;1.23;;;37.70;30.90;;;;;;5030699;28;20390;-59
2022/07/19 11:50:22;;;;;;;1.63;1.20;;;37.90;27.90;;;;;;5013830;28;20108;-59
2022/07/19 11:52:51;;;;;;;3.85;1.35;;;38.10;29.80;;;;;;5026620;28;20030;-60
2022/07/19 11:55:26;;;;;;;3.67;1.50;;;38.60;28.80;;;;;;5011023;28;20041;-59
2022/07/19 11:57:53;;;;;;;1.40;1.02;;;39.00;28.20;;;;;;5028526;28;20038;-59
2022/07/19 12:00:19;;;;;;;3.63;1.27;;;38.50;28.00;;;;;;5030547;28;20017;-60
2022/07/19 12:02:56;;;;;;;5.20;1.50;;;38.50;28.40;;;;;;5029968;28;20033;-59
2022/07/19 12:05:22;;;;;;;3.22;1.30;;;37.50;28.20;;;;;;5028610;28;20029;-59
2022/07/19 12:07:50;;;;;;;5.45;1.38;;;37.70;29.90;;;;;;5029890;28;20029;-59
2022/07/19 12:10:40;;;;;;;3.17;1.50;;;38.20;28.60;;;;;;5029759;28;20057;-59
2022/07/19 12:13:11;;;;;;;2.47;1.35;;;37.80;29.30;;;;;;5029510;28;20756;-59
2022/07/19 12:15:49;;;;;;;2.33;1.50;;;38.00;28.90;;;;;;5028860;28;20037;-60
2022/07/19 12:18:23;;;;;;;3.42;1.35;;;37.70;29.60;;;;;;5029950;28;20109;-59
2022/07/19 12:21:18;;;;;;;4.70;1.25;;;37.60;28.50;;;;;;5023642;28;20030;-59
2022/07/19 12:24:22;;;;;;;5.40;1.88;;;37.20;30.50;;;;;;5028381;28;20033;-59
2022/07/19 12:27:17;;;;;;;3.17;1.45;;;37.70;29.40;;;;;;5027630;28;20037;-59
2022/07/19 12:29:46;;;;;;;3.38;1.80;;;37.80;28.50;;;;;;5023098;28;20124;-59
2022/07/19 12:32:26;;;;;;;2.92;1.35;;;37.50;28.80;;;;;;5028647;28;20033;-60
2022/07/19 12:34:57;;;;;;;4.30;1.40;;;37.60;29.30;;;;;;5030013;28;20113;-60
2022/07/19 12:37:31;;;;;;;3.42;1.40;;;38.00;29.80;;;;;;5029206;28;20041;-59
2022/07/19 12:40:01;;;;;;;2.58;1.73;;;38.40;29.00;;;;;;5029095;28;20366;-59
2022/07/19 12:42:44;;;;;;;5.03;1.50;;;39.00;28.90;;;;;;5029438;28;20032;-59
2022/07/19 12:45:15;;;;;;;3.75;1.70;;;39.60;27.60;;;;;;5029954;28;20045;-59
2022/07/19 12:47:42;;;;;;;3.25;1.27;;;39.70;27.00;;;;;;5029098;28;20021;-59
2022/07/19 12:50:09;;;;;;;2.08;1.40;;;39.40;26.90;;;;;;5028926;28;20295;-59
2022/07/19 12:52:35;;;;;;;2.78;1.35;;;38.80;27.30;;;;;;5029531;28;20036;-59